.
WxDataArchive / Data Records for 2012-01-08
2012-01-07 January 2012 2012-01-09

Data Records for Sunday, 08 January 2012

Time	Temp	Chill	HIndex	Humid	Dewpt	 Wind 	HiWind	WindDir	Rain 	Barom 
-----	----	-----	------	-----	-----	------	------	-------	-----	----- 
00:00	28.2	28.2	28.2	82	23.4	0	0	---	0.00	30.233 
00:05	28.1	28.1	28.1	82	23.3	0	0	---	0.00	30.233 
00:10	27.8	27.8	27.8	82	23.0	0	0	---	0.00	30.233 
00:15	27.6	27.6	27.6	83	23.1	0	0	---	0.00	30.236 
00:20	27.5	27.5	27.5	83	23.0	0	0	---	0.00	30.236 
00:25	27.2	27.2	27.2	83	22.7	0	0	---	0.00	30.236 
00:30	27.0	27.0	27.0	83	22.5	0	0	---	0.00	30.240 
00:35	26.7	26.7	26.7	83	22.2	0	0	---	0.00	30.240 
00:40	26.7	26.7	26.7	84	22.5	0	0	---	0.00	30.240 
00:45	26.6	26.6	26.6	84	22.4	0	0	---	0.00	30.241 
00:50	26.4	26.4	26.4	84	22.2	0	0	---	0.00	30.241 
00:55	26.3	26.3	26.3	85	22.4	0	0	---	0.00	30.241 
01:00	26.1	26.1	26.1	85	22.2	0	0	---	0.00	30.245 
01:05	25.8	25.8	25.8	85	21.9	0	0	---	0.00	30.245 
01:10	25.7	25.7	25.7	85	21.8	0	0	---	0.00	30.245 
01:15	25.7	25.7	25.7	85	21.8	0	0	---	0.00	30.245 
01:20	25.7	25.7	25.7	86	22.1	0	0	---	0.00	30.245 
01:25	25.7	25.7	25.7	86	22.1	0	0	---	0.00	30.245 
01:30	25.8	25.8	25.8	86	22.2	0	0	---	0.00	30.248 
01:35	25.8	25.8	25.8	87	22.5	0	0	---	0.00	30.248 
01:40	26.1	26.1	26.1	87	22.8	0	0	---	0.00	30.248 
01:45	26.3	26.3	26.3	87	23.0	0	0	---	0.00	30.254 
01:50	26.4	26.4	26.4	87	23.1	0	0	---	0.00	30.254 
01:55	26.6	26.6	26.6	88	23.5	0	0	---	0.00	30.254 
02:00	26.7	26.7	26.7	88	23.6	0	0	---	0.00	30.252 
02:05	26.7	26.7	26.7	88	23.6	0	0	---	0.00	30.252 
02:10	26.7	26.7	26.7	88	23.6	0	0	---	0.00	30.252 
02:15	26.7	26.7	26.7	88	23.6	0	0	---	0.00	30.254 
02:20	26.7	26.7	26.7	88	23.6	0	0	---	0.00	30.254 
02:25	26.7	26.7	26.7	88	23.6	0	0	---	0.00	30.254 
02:30	26.7	26.7	26.7	87	23.4	0	0	---	0.00	30.254 
02:35	26.7	26.7	26.7	87	23.4	0	0	---	0.00	30.254 
02:40	26.6	26.6	26.6	87	23.3	0	0	---	0.00	30.254 
02:45	26.6	26.6	26.6	87	23.3	0	0	---	0.00	30.253 
02:50	26.4	26.4	26.4	87	23.1	0	0	---	0.00	30.253 
02:55	26.3	26.3	26.3	87	23.0	0	0	---	0.00	30.253 
03:00	26.1	26.1	26.1	87	22.8	0	0	---	0.00	30.252 
03:05	26.0	26.0	26.0	87	22.7	0	0	---	0.00	30.252 
03:10	25.7	25.7	25.7	87	22.4	0	0	---	0.00	30.252 
03:15	25.6	25.6	25.6	87	22.3	0	0	---	0.00	30.256 
03:20	25.4	25.4	25.4	87	22.1	0	0	---	0.00	30.256 
03:25	25.3	25.3	25.3	87	22.0	0	0	---	0.00	30.256 
03:30	25.1	25.1	25.1	87	21.8	0	0	---	0.00	30.262 
03:35	25.3	25.3	25.3	87	22.0	0	0	---	0.00	30.262 
03:40	25.3	25.3	25.3	88	22.3	0	0	---	0.00	30.262 
03:45	25.3	25.3	25.3	88	22.3	0	0	---	0.00	30.260 
03:50	25.3	25.3	25.3	88	22.3	0	0	---	0.00	30.260 
03:55	25.3	25.3	25.3	88	22.3	0	0	---	0.00	30.260 
04:00	25.3	25.3	25.3	88	22.3	0	0	---	0.00	30.264 
04:05	25.3	25.3	25.3	88	22.3	0	0	---	0.00	30.264 
04:10	25.1	25.1	25.1	88	22.1	0	0	---	0.00	30.264 
04:15	25.1	25.1	25.1	88	22.1	0	0	---	0.00	30.273 
04:20	25.1	25.1	25.1	88	22.1	0	0	---	0.00	30.273 
04:25	25.3	25.3	25.3	88	22.3	0	0	---	0.00	30.273 
04:30	25.6	25.6	25.6	88	22.5	0	0	---	0.00	30.276 
04:35	25.8	25.8	25.8	89	23.0	0	0	---	0.00	30.276 
04:40	26.0	26.0	26.0	88	22.9	0	0	---	0.00	30.276 
04:45	26.0	26.0	26.0	89	23.2	0	0	---	0.00	30.277 
04:50	26.1	26.1	26.1	88	23.0	0	0	---	0.00	30.277 
04:55	26.1	26.1	26.1	88	23.0	0	0	---	0.00	30.277 
05:00	26.1	26.1	26.1	88	23.0	0	0	---	0.00	30.277 
05:05	26.1	26.1	26.1	88	23.0	0	0	---	0.00	30.277 
05:10	26.1	26.1	26.1	88	23.0	0	0	---	0.00	30.277 
05:15	26.1	26.1	26.1	88	23.0	0	0	---	0.00	30.288 
05:20	26.0	26.0	26.0	88	22.9	0	0	---	0.00	30.288 
05:25	26.0	26.0	26.0	88	22.9	0	0	---	0.00	30.288 
05:30	26.0	26.0	26.0	88	22.9	0	0	---	0.00	30.292 
05:35	26.0	26.0	26.0	88	22.9	0	0	---	0.00	30.292 
05:40	25.8	25.8	25.8	88	22.7	0	0	---	0.00	30.292 
05:45	25.8	25.8	25.8	88	22.7	0	0	---	0.00	30.296 
05:50	25.8	25.8	25.8	88	22.7	0	0	---	0.00	30.296 
05:55	25.7	25.7	25.7	88	22.6	0	0	---	0.00	30.296 
06:00	25.6	25.6	25.6	88	22.5	0	0	---	0.00	30.299 
06:05	25.6	25.6	25.6	88	22.5	0	0	---	0.00	30.299 
06:10	25.4	25.4	25.4	88	22.4	0	0	---	0.00	30.299 
06:15	25.3	25.3	25.3	88	22.3	0	0	---	0.00	30.298 
06:20	25.3	25.3	25.3	88	22.3	0	0	---	0.00	30.298 
06:25	25.1	25.1	25.1	88	22.1	0	0	---	0.00	30.298 
06:30	25.1	25.1	25.1	88	22.1	0	0	---	0.00	30.304 
06:35	25.0	25.0	25.0	88	22.0	0	0	---	0.00	30.304 
06:40	25.0	25.0	25.0	88	22.0	0	0	---	0.00	30.304 
06:45	24.8	24.8	24.8	88	21.8	0	0	---	0.00	30.305 
06:50	24.8	24.8	24.8	89	22.0	0	0	---	0.00	30.305 
06:55	25.0	25.0	25.0	89	22.2	0	0	---	0.00	30.305 
07:00	25.0	25.0	25.0	89	22.2	0	0	---	0.00	30.309 
07:05	25.0	25.0	25.0	89	22.2	0	0	---	0.00	30.309 
07:10	25.1	25.1	25.1	89	22.3	0	0	---	0.00	30.309 
07:15	25.1	25.1	25.1	89	22.3	0	0	---	0.00	30.315 
07:20	25.0	25.0	25.0	89	22.2	0	0	---	0.00	30.315 
07:25	25.0	25.0	25.0	89	22.2	0	0	---	0.00	30.315 
07:30	25.0	25.0	25.0	89	22.2	0	0	---	0.00	30.319 
07:35	25.0	25.0	25.0	89	22.2	0	0	---	0.00	30.319 
07:40	25.0	25.0	25.0	89	22.2	0	0	---	0.00	30.319 
07:45	25.0	25.0	25.0	89	22.2	0	0	---	0.00	30.329 
07:50	25.0	25.0	25.0	89	22.2	0	0	---	0.00	30.329 
07:55	25.0	25.0	25.0	89	22.2	0	0	---	0.00	30.329 
08:00	24.8	24.8	24.8	89	22.0	0	0	---	0.00	30.337 
08:05	24.8	24.8	24.8	90	22.3	0	0	---	0.00	30.337 
08:10	24.8	24.8	24.8	90	22.3	0	0	---	0.00	30.337 
08:15	24.8	24.8	24.8	90	22.3	0	0	---	0.00	30.343 
08:20	24.8	24.8	24.8	90	22.3	0	0	---	0.00	30.343 
08:25	24.8	24.8	24.8	90	22.3	0	0	---	0.00	30.343 
08:30	25.0	25.0	25.0	90	22.5	0	0	---	0.00	30.346 
08:35	25.1	25.1	25.1	90	22.6	0	0	---	0.00	30.346 
08:40	25.3	25.3	25.3	90	22.8	0	0	---	0.00	30.346 
08:45	25.4	25.4	25.4	90	22.9	0	0	---	0.00	30.356 
08:50	25.6	25.6	25.6	90	23.1	0	0	---	0.00	30.356 
08:55	25.7	25.7	25.7	91	23.4	0	0	---	0.00	30.356 
09:00	26.0	26.0	26.0	91	23.7	0	0	---	0.00	30.359 
09:05	26.1	26.1	26.1	91	23.8	0	0	---	0.00	30.359 
09:10	26.3	26.3	26.3	91	24.0	0	0	---	0.00	30.359 
09:15	26.4	26.4	26.4	91	24.1	0	0	---	0.00	30.361 
09:20	26.6	26.6	26.6	91	24.3	0	0	---	0.00	30.361 
09:25	26.7	26.7	26.7	91	24.4	0	0	---	0.00	30.361 
09:30	27.0	27.0	27.0	91	24.7	0	0	---	0.00	30.361 
09:35	27.2	27.2	27.2	91	24.9	0	0	---	0.00	30.361 
09:40	27.6	27.6	27.6	91	25.3	0	0	---	0.00	30.361 
09:45	28.1	28.1	28.1	91	25.8	0	0	---	0.00	30.370 
09:50	28.7	28.7	28.7	91	26.4	0	1	315	0.00	30.370 
09:55	29.3	29.3	29.3	90	26.7	0	1	315	0.00	30.370 
10:00	29.8	29.8	29.8	89	27.0	0	1	315	0.00	30.376 
10:05	30.3	30.3	30.3	87	26.9	1	3	90	0.00	30.376 
10:10	30.7	30.7	30.7	85	26.7	0	2	90	0.00	30.376 
10:15	31.2	31.2	31.2	80	25.8	1	3	90	0.00	30.387 
10:20	31.8	31.8	31.8	77	25.4	1	3	90	0.00	30.387 
10:25	32.2	32.2	32.2	75	25.2	1	5	90	0.00	30.387 
10:30	32.5	32.5	32.5	72	24.5	1	4	90	0.00	30.387 
10:35	32.8	32.8	32.8	70	24.1	1	5	112	0.00	30.387 
10:40	33.1	33.1	33.1	69	24.1	1	4	112	0.00	30.387 
10:45	33.4	33.4	33.4	67	23.6	1	4	112	0.00	30.390 
10:50	33.5	33.5	33.5	66	23.4	2	6	112	0.00	30.390 
10:55	33.7	33.7	33.7	65	23.2	2	5	112	0.00	30.390 
11:00	33.8	33.8	33.8	64	22.9	2	5	90	0.00	30.389 
11:05	34.1	34.1	34.1	66	23.9	1	4	90	0.00	30.389 
11:10	34.1	34.1	34.1	65	23.6	2	5	90	0.00	30.389 
11:15	34.4	34.4	34.4	64	23.5	1	5	90	0.00	30.388 
11:20	34.4	34.4	34.4	64	23.5	2	4	90	0.00	30.388 
11:25	34.6	34.6	34.6	65	24.1	1	4	90	0.00	30.388 
11:30	34.6	34.6	34.6	63	23.3	2	4	90	0.00	30.386 
11:35	34.9	34.9	34.9	62	23.2	1	3	90	0.00	30.386 
11:40	35.2	35.2	35.2	62	23.5	0	2	90	0.00	30.386 
11:45	35.5	35.5	35.5	62	23.8	1	4	90	0.00	30.384 
11:50	35.6	35.6	35.6	63	24.3	1	3	112	0.00	30.384 
11:55	35.9	35.9	35.9	62	24.2	0	2	112	0.00	30.384 
12:00	36.0	36.0	36.0	63	24.6	0	2	112	0.00	30.374 
12:05	36.3	36.3	36.3	62	24.5	1	3	112	0.00	30.374 
12:10	36.3	36.3	36.3	61	24.2	1	3	112	0.00	30.374 
12:15	36.2	36.2	36.2	61	24.1	0	3	112	0.00	30.372 
12:20	36.2	36.2	36.2	62	24.5	0	2	112	0.00	30.372 
12:25	36.2	36.2	36.2	62	24.5	0	2	112	0.00	30.372 
12:30	36.3	36.3	36.3	62	24.5	0	3	112	0.00	30.367 
12:35	36.6	36.6	36.6	62	24.8	0	1	112	0.00	30.367 
12:40	36.8	36.8	36.8	62	25.0	0	1	112	0.00	30.367 
12:45	37.0	37.0	37.0	63	25.6	0	2	112	0.00	30.364 
12:50	37.2	37.2	37.2	62	25.4	0	2	112	0.00	30.364 
12:55	37.3	37.3	37.3	62	25.5	0	3	112	0.00	30.364 
13:00	37.5	37.5	37.5	61	25.3	0	2	112	0.00	30.360 
13:05	37.8	37.8	37.8	61	25.6	1	4	112	0.00	30.360 
13:10	37.8	37.8	37.8	60	25.2	0	4	112	0.00	30.360 
13:15	37.8	37.8	37.8	60	25.2	1	3	112	0.00	30.357 
13:20	37.8	37.8	37.8	60	25.2	0	3	112	0.00	30.357 
13:25	37.8	37.8	37.8	61	25.6	1	4	112	0.00	30.357 
13:30	37.9	37.9	37.9	60	25.3	1	4	112	0.00	30.355 
13:35	37.9	37.9	37.9	60	25.3	0	2	112	0.00	30.355 
13:40	38.0	38.0	38.0	59	25.0	1	3	112	0.00	30.355 
13:45	38.0	38.0	38.0	58	24.6	0	1	112	0.00	30.354 
13:50	38.2	38.2	38.2	60	25.6	0	1	112	0.00	30.354 
13:55	38.3	38.3	38.3	60	25.6	0	2	112	0.00	30.354 
14:00	38.5	38.5	38.5	58	25.0	0	1	112	0.00	30.344 
14:05	38.6	38.6	38.6	58	25.1	1	3	112	0.00	30.344 
14:10	38.8	38.8	38.8	58	25.3	0	3	112	0.00	30.344 
14:15	38.6	38.6	38.6	56	24.3	0	2	112	0.00	30.342 
14:20	38.5	38.5	38.5	56	24.2	0	2	112	0.00	30.342 
14:25	38.6	38.6	38.6	57	24.7	0	1	112	0.00	30.342 
14:30	38.6	38.6	38.6	57	24.7	1	3	112	0.00	30.341 
14:35	38.6	38.6	38.6	57	24.7	0	2	112	0.00	30.341 
14:40	38.6	38.6	38.6	57	24.7	0	1	112	0.00	30.341 
14:45	38.6	38.6	38.6	57	24.7	0	2	112	0.00	30.342 
14:50	38.8	38.8	38.8	58	25.3	0	1	112	0.00	30.342 
14:55	38.8	38.8	38.8	56	24.5	0	2	112	0.00	30.342 
15:00	38.8	38.8	38.8	55	24.0	0	1	112	0.00	30.346 
15:05	38.9	38.9	38.9	55	24.1	0	2	112	0.00	30.346 
15:10	38.9	38.9	38.9	54	23.7	0	2	112	0.00	30.346 
15:15	38.9	38.9	38.9	56	24.6	0	1	112	0.00	30.343 
15:20	39.1	39.1	39.1	55	24.3	0	1	112	0.00	30.343 
15:25	39.1	39.1	39.1	54	23.9	0	0	---	0.00	30.343 
15:30	39.1	39.1	39.1	54	23.9	0	2	112	0.00	30.341 
15:35	39.1	39.1	39.1	54	23.9	0	2	112	0.00	30.341 
15:40	39.2	39.2	39.2	54	24.0	0	2	112	0.00	30.341 
15:45	39.2	39.2	39.2	54	24.0	0	2	112	0.00	30.339 
15:50	39.1	39.1	39.1	55	24.3	0	1	112	0.00	30.339 
15:55	39.1	39.1	39.1	54	23.9	0	2	112	0.00	30.339 
16:00	39.1	39.1	39.1	55	24.3	0	1	112	0.00	30.337 
16:05	38.9	38.9	38.9	55	24.1	0	1	112	0.00	30.337 
16:10	38.9	38.9	38.9	55	24.1	0	0	---	0.00	30.337 
16:15	38.8	38.8	38.8	56	24.5	0	1	112	0.00	30.336 
16:20	38.8	38.8	38.8	56	24.5	0	1	112	0.00	30.336 
16:25	38.6	38.6	38.6	57	24.7	0	0	---	0.00	30.336 
16:30	38.6	38.6	38.6	58	25.1	0	0	---	0.00	30.337 
16:35	38.5	38.5	38.5	58	25.0	0	0	---	0.00	30.337 
16:40	38.5	38.5	38.5	57	24.6	0	0	---	0.00	30.337 
16:45	38.5	38.5	38.5	57	24.6	0	1	112	0.00	30.338 
16:50	38.5	38.5	38.5	57	24.6	0	1	112	0.00	30.338 
16:55	38.5	38.5	38.5	57	24.6	0	1	112	0.00	30.338 
17:00	38.5	38.5	38.5	58	25.0	0	0	---	0.00	30.339 
17:05	38.3	38.3	38.3	58	24.8	0	0	---	0.00	30.339 
17:10	38.2	38.2	38.2	59	25.2	0	1	112	0.00	30.339 
17:15	38.0	38.0	38.0	60	25.4	0	0	---	0.00	30.341 
17:20	37.9	37.9	37.9	61	25.7	0	0	---	0.00	30.341 
17:25	37.6	37.6	37.6	61	25.4	0	0	---	0.00	30.341 
17:30	37.5	37.5	37.5	62	25.7	0	0	---	0.00	30.342 
17:35	37.2	37.2	37.2	62	25.4	0	0	---	0.00	30.342 
17:40	36.9	36.9	36.9	63	25.5	0	0	---	0.00	30.342 
17:45	36.8	36.8	36.8	64	25.8	0	0	---	0.00	30.344 
17:50	36.5	36.5	36.5	64	25.5	0	0	---	0.00	30.344 
17:55	36.2	36.2	36.2	64	25.2	0	0	---	0.00	30.344 
18:00	35.9	35.9	35.9	65	25.3	0	0	---	0.00	30.344 
18:05	35.8	35.8	35.8	65	25.2	0	0	---	0.00	30.344 
18:10	35.5	35.5	35.5	65	24.9	0	0	---	0.00	30.344 
18:15	35.3	35.3	35.3	65	24.7	0	0	---	0.00	30.346 
18:20	35.2	35.2	35.2	65	24.6	0	0	---	0.00	30.346 
18:25	35.0	35.0	35.0	66	24.8	0	0	---	0.00	30.346 
18:30	34.9	34.9	34.9	66	24.7	0	0	---	0.00	30.346 
18:35	34.7	34.7	34.7	67	24.9	0	0	---	0.00	30.346 
18:40	34.6	34.6	34.6	67	24.8	0	0	---	0.00	30.346 
18:45	34.6	34.6	34.6	68	25.1	0	0	---	0.00	30.346 
18:50	34.4	34.4	34.4	68	24.9	0	0	---	0.00	30.346 
18:55	34.4	34.4	34.4	69	25.3	0	0	---	0.00	30.346 
19:00	34.4	34.4	34.4	69	25.3	0	0	---	0.00	30.357 
19:05	34.4	34.4	34.4	69	25.3	0	0	---	0.00	30.357 
19:10	34.3	34.3	34.3	69	25.2	0	0	---	0.00	30.357 
19:15	34.3	34.3	34.3	69	25.2	0	0	---	0.00	30.355 
19:20	34.1	34.1	34.1	70	25.4	0	0	---	0.00	30.355 
19:25	34.1	34.1	34.1	71	25.7	0	0	---	0.00	30.355 
19:30	34.1	34.1	34.1	71	25.7	0	0	---	0.00	30.349 
19:35	34.1	34.1	34.1	71	25.7	0	0	---	0.00	30.349 
19:40	34.0	34.0	34.0	72	25.9	0	0	---	0.00	30.349 
19:45	33.8	33.8	33.8	72	25.7	0	0	---	0.00	30.349 
19:50	33.7	33.7	33.7	72	25.7	0	0	---	0.00	30.349 
19:55	33.7	33.7	33.7	72	25.7	0	0	---	0.00	30.349 
20:00	33.5	33.5	33.5	72	25.5	0	0	---	0.00	30.347 
20:05	33.5	33.5	33.5	73	25.8	0	0	---	0.00	30.347 
20:10	33.5	33.5	33.5	73	25.8	0	0	---	0.00	30.347 
20:15	33.4	33.4	33.4	73	25.7	0	0	---	0.00	30.346 
20:20	33.4	33.4	33.4	73	25.7	0	0	---	0.00	30.346 
20:25	33.2	33.2	33.2	73	25.5	0	0	---	0.00	30.346 
20:30	33.1	33.1	33.1	74	25.7	0	0	---	0.00	30.345 
20:35	33.1	33.1	33.1	74	25.7	0	0	---	0.00	30.345 
20:40	33.1	33.1	33.1	75	26.1	0	0	---	0.00	30.345 
20:45	32.9	32.9	32.9	75	25.9	0	0	---	0.00	30.343 
20:50	32.9	32.9	32.9	75	25.9	0	0	---	0.00	30.343 
20:55	32.8	32.8	32.8	75	25.8	0	0	---	0.00	30.343 
21:00	32.7	32.7	32.7	75	25.7	0	0	---	0.00	30.343 
21:05	32.7	32.7	32.7	75	25.7	0	0	---	0.00	30.343 
21:10	32.5	32.5	32.5	76	25.8	0	0	---	0.00	30.343 
21:15	32.5	32.5	32.5	76	25.8	0	0	---	0.00	30.337 
21:20	32.4	32.4	32.4	76	25.7	0	0	---	0.00	30.337 
21:25	32.2	32.2	32.2	77	25.8	0	0	---	0.00	30.337 
21:30	32.1	32.1	32.1	77	25.7	0	0	---	0.00	30.329 
21:35	31.9	31.9	31.9	77	25.5	0	0	---	0.00	30.329 
21:40	31.9	31.9	31.9	78	25.8	0	0	---	0.00	30.329 
21:45	31.8	31.8	31.8	78	25.7	0	0	---	0.00	30.329 
21:50	31.6	31.6	31.6	78	25.5	0	0	---	0.00	30.329 
21:55	31.5	31.5	31.5	78	25.4	0	0	---	0.00	30.329 
22:00	31.3	31.3	31.3	79	25.6	0	0	---	0.00	30.328 
22:05	31.2	31.2	31.2	79	25.5	0	0	---	0.00	30.328 
22:10	31.0	31.0	31.0	79	25.3	0	0	---	0.00	30.328 
22:15	30.9	30.9	30.9	79	25.2	0	0	---	0.00	30.319 
22:20	30.7	30.7	30.7	79	25.0	0	0	---	0.00	30.319 
22:25	30.6	30.6	30.6	80	25.2	0	0	---	0.00	30.319 
22:30	30.4	30.4	30.4	81	25.3	0	0	---	0.00	30.309 
22:35	30.3	30.3	30.3	81	25.2	0	0	---	0.00	30.309 
22:40	30.3	30.3	30.3	81	25.2	0	0	---	0.00	30.309 
22:45	30.3	30.3	30.3	81	25.2	0	0	---	0.00	30.310 
22:50	30.1	30.1	30.1	81	25.0	0	0	---	0.00	30.310 
22:55	30.0	30.0	30.0	81	24.9	0	0	---	0.00	30.310 
23:00	29.7	29.7	29.7	81	24.6	0	0	---	0.00	30.308 
23:05	29.5	29.5	29.5	82	24.7	0	0	---	0.00	30.308 
23:10	29.4	29.4	29.4	82	24.6	0	0	---	0.00	30.308 
23:15	29.3	29.3	29.3	82	24.5	0	0	---	0.00	30.309 
23:20	29.1	29.1	29.1	83	24.6	0	0	---	0.00	30.309 
23:25	29.0	29.0	29.0	83	24.5	0	0	---	0.00	30.309 
23:30	28.8	28.8	28.8	84	24.6	0	0	---	0.00	30.308 
23:35	29.0	29.0	29.0	84	24.8	0	0	---	0.00	30.308 
23:40	29.0	29.0	29.0	84	24.8	0	0	---	0.00	30.308 
23:45	29.1	29.1	29.1	84	24.9	0	0	---	0.00	30.310 
23:50	29.3	29.3	29.3	85	25.4	0	0	---	0.00	30.310 
23:55	29.4	29.4	29.4	85	25.5	0	0	---	0.00	30.310 

CoCoRaHS
IN-AL-39
A2 Web Hosting
Creative Commons License
GoDaddy
search engine by freefind advanced

loaded 2018-11-17 14:30:24 • last modified 2010-11-18 10:43:29
Privacy PolicyDisclaimer
• wx.awcolley.com is powered by PmWiki v.2002016 •
• all content (unless otherwise noted) © 2018 A W Colley